sensor_id;sensor_type;location;lat;lon;timestamp;temperature;humidity
38333;DHT22;25748;46.670;14.272;2024-01-11T00:02:14;-5.90;58.70
38333;DHT22;25748;46.670;14.272;2024-01-11T00:04:40;-5.90;58.80
38333;DHT22;25748;46.670;14.272;2024-01-11T00:07:07;-5.90;58.60
38333;DHT22;25748;46.670;14.272;2024-01-11T00:09:33;-5.90;58.70
38333;DHT22;25748;46.670;14.272;2024-01-11T00:11:58;-5.90;58.70
38333;DHT22;25748;46.670;14.272;2024-01-11T00:14:24;-6.00;58.70
38333;DHT22;25748;46.670;14.272;2024-01-11T00:16:49;-6.00;58.70
38333;DHT22;25748;46.670;14.272;2024-01-11T00:19:15;-6.00;58.90
38333;DHT22;25748;46.670;14.272;2024-01-11T00:21:41;-6.00;58.90
38333;DHT22;25748;46.670;14.272;2024-01-11T00:24:06;-6.00;58.90
38333;DHT22;25748;46.670;14.272;2024-01-11T00:26:32;-6.00;58.90
38333;DHT22;25748;46.670;14.272;2024-01-11T00:28:57;-6.00;59.00
38333;DHT22;25748;46.670;14.272;2024-01-11T00:31:23;-6.00;58.90
38333;DHT22;25748;46.670;14.272;2024-01-11T00:33:49;-6.00;59.00
38333;DHT22;25748;46.670;14.272;2024-01-11T00:36:18;-6.00;59.00
38333;DHT22;25748;46.670;14.272;2024-01-11T00:38:45;-6.10;58.90
38333;DHT22;25748;46.670;14.272;2024-01-11T00:41:11;-6.10;58.80
38333;DHT22;25748;46.670;14.272;2024-01-11T00:43:36;-6.10;58.90
38333;DHT22;25748;46.670;14.272;2024-01-11T00:46:02;-6.10;59.10
38333;DHT22;25748;46.670;14.272;2024-01-11T00:48:27;-6.10;59.10
38333;DHT22;25748;46.670;14.272;2024-01-11T00:50:53;-6.10;59.20
38333;DHT22;25748;46.670;14.272;2024-01-11T00:53:19;-6.10;58.90
38333;DHT22;25748;46.670;14.272;2024-01-11T00:55:45;-6.10;59.00
38333;DHT22;25748;46.670;14.272;2024-01-11T00:58:10;-6.10;59.00
38333;DHT22;25748;46.670;14.272;2024-01-11T01:00:36;-6.10;59.00
38333;DHT22;25748;46.670;14.272;2024-01-11T01:03:02;-6.10;59.10
38333;DHT22;25748;46.670;14.272;2024-01-11T01:05:27;-6.10;59.20
38333;DHT22;25748;46.670;14.272;2024-01-11T01:07:53;-6.10;59.10
38333;DHT22;25748;46.670;14.272;2024-01-11T01:10:19;-6.20;58.90
38333;DHT22;25748;46.670;14.272;2024-01-11T01:12:44;-6.20;58.90
38333;DHT22;25748;46.670;14.272;2024-01-11T01:15:10;-6.20;58.90
38333;DHT22;25748;46.670;14.272;2024-01-11T01:17:35;-6.30;58.80
38333;DHT22;25748;46.670;14.272;2024-01-11T01:20:01;-6.30;58.90
38333;DHT22;25748;46.670;14.272;2024-01-11T01:22:27;-6.30;58.90
38333;DHT22;25748;46.670;14.272;2024-01-11T01:24:52;-6.30;58.80
38333;DHT22;25748;46.670;14.272;2024-01-11T01:27:18;-6.40;59.00
38333;DHT22;25748;46.670;14.272;2024-01-11T01:29:44;-6.30;59.20
38333;DHT22;25748;46.670;14.272;2024-01-11T01:32:09;-6.30;59.30
38333;DHT22;25748;46.670;14.272;2024-01-11T01:34:35;-6.30;59.40
38333;DHT22;25748;46.670;14.272;2024-01-11T01:37:00;-6.20;59.40
38333;DHT22;25748;46.670;14.272;2024-01-11T01:39:26;-6.30;59.40
38333;DHT22;25748;46.670;14.272;2024-01-11T01:41:52;-6.30;59.30
38333;DHT22;25748;46.670;14.272;2024-01-11T01:44:17;-6.30;59.20
38333;DHT22;25748;46.670;14.272;2024-01-11T01:46:43;-6.30;59.30
38333;DHT22;25748;46.670;14.272;2024-01-11T01:49:10;-6.30;59.20
38333;DHT22;25748;46.670;14.272;2024-01-11T01:51:37;-6.30;59.30
38333;DHT22;25748;46.670;14.272;2024-01-11T01:54:03;-6.30;59.20
38333;DHT22;25748;46.670;14.272;2024-01-11T01:56:29;-6.40;59.30
38333;DHT22;25748;46.670;14.272;2024-01-11T01:58:55;-6.40;59.40
38333;DHT22;25748;46.670;14.272;2024-01-11T02:01:22;-6.40;59.30
38333;DHT22;25748;46.670;14.272;2024-01-11T02:03:52;-6.40;59.20
38333;DHT22;25748;46.670;14.272;2024-01-11T02:06:21;-6.40;59.30
38333;DHT22;25748;46.670;14.272;2024-01-11T02:08:49;-6.40;59.40
38333;DHT22;25748;46.670;14.272;2024-01-11T02:11:18;-6.40;59.50
38333;DHT22;25748;46.670;14.272;2024-01-11T02:13:45;-6.40;59.50
38333;DHT22;25748;46.670;14.272;2024-01-11T02:16:12;-6.40;59.60
38333;DHT22;25748;46.670;14.272;2024-01-11T02:18:38;-6.40;59.60
38333;DHT22;25748;46.670;14.272;2024-01-11T02:21:07;-6.40;59.60
38333;DHT22;25748;46.670;14.272;2024-01-11T02:23:39;-6.40;59.40
38333;DHT22;25748;46.670;14.272;2024-01-11T02:26:07;-6.40;59.30
38333;DHT22;25748;46.670;14.272;2024-01-11T02:28:33;-6.50;59.30
38333;DHT22;25748;46.670;14.272;2024-01-11T02:30:59;-6.50;59.30
38333;DHT22;25748;46.670;14.272;2024-01-11T02:33:24;-6.50;59.30
38333;DHT22;25748;46.670;14.272;2024-01-11T02:35:50;-6.50;59.30
38333;DHT22;25748;46.670;14.272;2024-01-11T02:38:24;-6.50;59.30
38333;DHT22;25748;46.670;14.272;2024-01-11T02:40:50;-6.50;59.40
38333;DHT22;25748;46.670;14.272;2024-01-11T02:43:15;-6.60;59.30
38333;DHT22;25748;46.670;14.272;2024-01-11T02:45:41;-6.60;59.40
38333;DHT22;25748;46.670;14.272;2024-01-11T02:48:06;-6.60;59.30
38333;DHT22;25748;46.670;14.272;2024-01-11T02:50:32;-6.60;59.30
38333;DHT22;25748;46.670;14.272;2024-01-11T02:52:58;-6.60;59.30
38333;DHT22;25748;46.670;14.272;2024-01-11T02:55:23;-6.60;59.40
38333;DHT22;25748;46.670;14.272;2024-01-11T02:57:49;-6.60;59.40
38333;DHT22;25748;46.670;14.272;2024-01-11T03:00:15;-6.60;59.40
38333;DHT22;25748;46.670;14.272;2024-01-11T03:02:40;-6.70;59.20
38333;DHT22;25748;46.670;14.272;2024-01-11T03:05:06;-6.70;59.30
38333;DHT22;25748;46.670;14.272;2024-01-11T03:07:32;-6.70;59.30
38333;DHT22;25748;46.670;14.272;2024-01-11T03:09:58;-6.70;59.30
38333;DHT22;25748;46.670;14.272;2024-01-11T03:12:24;-6.70;59.30
38333;DHT22;25748;46.670;14.272;2024-01-11T03:14:51;-6.80;59.30
38333;DHT22;25748;46.670;14.272;2024-01-11T03:17:17;-6.80;59.30
38333;DHT22;25748;46.670;14.272;2024-01-11T03:19:43;-6.80;59.40
38333;DHT22;25748;46.670;14.272;2024-01-11T03:22:08;-6.80;59.40
38333;DHT22;25748;46.670;14.272;2024-01-11T03:24:37;-6.80;59.50
38333;DHT22;25748;46.670;14.272;2024-01-11T03:27:04;-6.80;59.70
38333;DHT22;25748;46.670;14.272;2024-01-11T03:29:31;-6.70;59.50
38333;DHT22;25748;46.670;14.272;2024-01-11T03:31:56;-6.80;59.50
38333;DHT22;25748;46.670;14.272;2024-01-11T03:34:22;-6.80;59.50
38333;DHT22;25748;46.670;14.272;2024-01-11T03:36:48;-6.80;59.50
38333;DHT22;25748;46.670;14.272;2024-01-11T03:39:13;-6.80;59.50
38333;DHT22;25748;46.670;14.272;2024-01-11T03:41:44;-6.80;59.50
38333;DHT22;25748;46.670;14.272;2024-01-11T03:44:10;-6.80;59.50
38333;DHT22;25748;46.670;14.272;2024-01-11T03:46:36;-6.80;59.50
38333;DHT22;25748;46.670;14.272;2024-01-11T03:49:02;-6.80;59.60
38333;DHT22;25748;46.670;14.272;2024-01-11T03:51:27;-6.80;59.50
38333;DHT22;25748;46.670;14.272;2024-01-11T03:53:53;-6.80;59.50
38333;DHT22;25748;46.670;14.272;2024-01-11T03:56:18;-6.80;59.60
38333;DHT22;25748;46.670;14.272;2024-01-11T03:58:46;-6.80;59.60
38333;DHT22;25748;46.670;14.272;2024-01-11T04:01:11;-6.80;59.70
38333;DHT22;25748;46.670;14.272;2024-01-11T04:03:37;-6.80;59.60
38333;DHT22;25748;46.670;14.272;2024-01-11T04:06:03;-6.80;59.70
38333;DHT22;25748;46.670;14.272;2024-01-11T04:08:29;-6.80;59.70
38333;DHT22;25748;46.670;14.272;2024-01-11T04:10:55;-6.80;59.80
38333;DHT22;25748;46.670;14.272;2024-01-11T04:13:20;-6.80;59.80
38333;DHT22;25748;46.670;14.272;2024-01-11T04:15:46;-6.80;59.80
38333;DHT22;25748;46.670;14.272;2024-01-11T04:18:12;-6.80;59.70
38333;DHT22;25748;46.670;14.272;2024-01-11T04:20:37;-6.80;59.70
38333;DHT22;25748;46.670;14.272;2024-01-11T04:23:03;-6.80;59.90
38333;DHT22;25748;46.670;14.272;2024-01-11T04:25:28;-6.80;59.90
38333;DHT22;25748;46.670;14.272;2024-01-11T04:27:54;-6.80;59.90
38333;DHT22;25748;46.670;14.272;2024-01-11T04:30:20;-6.80;59.80
38333;DHT22;25748;46.670;14.272;2024-01-11T04:32:45;-6.80;59.80
38333;DHT22;25748;46.670;14.272;2024-01-11T04:35:11;-6.90;59.70
38333;DHT22;25748;46.670;14.272;2024-01-11T04:37:36;-6.90;59.70
38333;DHT22;25748;46.670;14.272;2024-01-11T04:40:03;-6.90;59.70
38333;DHT22;25748;46.670;14.272;2024-01-11T04:42:29;-6.90;59.80
38333;DHT22;25748;46.670;14.272;2024-01-11T04:44:55;-6.90;59.80
38333;DHT22;25748;46.670;14.272;2024-01-11T04:47:20;-6.90;59.80
38333;DHT22;25748;46.670;14.272;2024-01-11T04:49:46;-6.90;59.70
38333;DHT22;25748;46.670;14.272;2024-01-11T04:52:12;-6.90;59.70
38333;DHT22;25748;46.670;14.272;2024-01-11T04:54:37;-6.90;59.70
38333;DHT22;25748;46.670;14.272;2024-01-11T04:57:03;-7.00;59.60
38333;DHT22;25748;46.670;14.272;2024-01-11T04:59:29;-7.00;59.60
38333;DHT22;25748;46.670;14.272;2024-01-11T05:01:55;-7.00;59.60
38333;DHT22;25748;46.670;14.272;2024-01-11T05:04:21;-7.00;59.70
38333;DHT22;25748;46.670;14.272;2024-01-11T05:06:47;-7.00;59.60
38333;DHT22;25748;46.670;14.272;2024-01-11T05:09:12;-7.00;59.70
38333;DHT22;25748;46.670;14.272;2024-01-11T05:11:39;-7.00;59.60
38333;DHT22;25748;46.670;14.272;2024-01-11T05:14:05;-7.00;59.70
38333;DHT22;25748;46.670;14.272;2024-01-11T05:16:31;-7.00;59.60
38333;DHT22;25748;46.670;14.272;2024-01-11T05:18:57;-7.00;59.60
38333;DHT22;25748;46.670;14.272;2024-01-11T05:21:24;-7.00;59.60
38333;DHT22;25748;46.670;14.272;2024-01-11T05:23:49;-7.00;59.70
38333;DHT22;25748;46.670;14.272;2024-01-11T05:26:16;-7.10;59.70
38333;DHT22;25748;46.670;14.272;2024-01-11T05:28:42;-7.00;59.60
38333;DHT22;25748;46.670;14.272;2024-01-11T05:31:15;-7.00;59.60
38333;DHT22;25748;46.670;14.272;2024-01-11T05:33:41;-7.10;59.40
38333;DHT22;25748;46.670;14.272;2024-01-11T05:36:07;-7.10;59.40
38333;DHT22;25748;46.670;14.272;2024-01-11T05:38:33;-7.10;59.50
38333;DHT22;25748;46.670;14.272;2024-01-11T05:41:00;-7.20;59.20
38333;DHT22;25748;46.670;14.272;2024-01-11T05:43:26;-7.20;59.20
38333;DHT22;25748;46.670;14.272;2024-01-11T05:45:51;-7.20;59.20
38333;DHT22;25748;46.670;14.272;2024-01-11T05:48:17;-7.30;59.20
38333;DHT22;25748;46.670;14.272;2024-01-11T05:50:44;-7.30;59.30
38333;DHT22;25748;46.670;14.272;2024-01-11T05:53:11;-7.30;59.30
38333;DHT22;25748;46.670;14.272;2024-01-11T05:55:37;-7.30;59.40
38333;DHT22;25748;46.670;14.272;2024-01-11T05:58:03;-7.30;59.50
38333;DHT22;25748;46.670;14.272;2024-01-11T06:00:29;-7.30;59.50
38333;DHT22;25748;46.670;14.272;2024-01-11T06:02:55;-7.30;59.50
38333;DHT22;25748;46.670;14.272;2024-01-11T06:05:20;-7.30;59.50
38333;DHT22;25748;46.670;14.272;2024-01-11T06:07:46;-7.20;59.70
38333;DHT22;25748;46.670;14.272;2024-01-11T06:10:13;-7.20;59.80
38333;DHT22;25748;46.670;14.272;2024-01-11T06:12:39;-7.20;59.90
38333;DHT22;25748;46.670;14.272;2024-01-11T06:15:06;-7.10;60.00
38333;DHT22;25748;46.670;14.272;2024-01-11T06:17:32;-7.10;60.00
38333;DHT22;25748;46.670;14.272;2024-01-11T06:19:57;-7.10;59.90
38333;DHT22;25748;46.670;14.272;2024-01-11T06:22:23;-7.10;59.90
38333;DHT22;25748;46.670;14.272;2024-01-11T06:24:48;-7.10;59.80
38333;DHT22;25748;46.670;14.272;2024-01-11T06:27:14;-7.10;59.80
38333;DHT22;25748;46.670;14.272;2024-01-11T06:29:40;-7.20;59.60
38333;DHT22;25748;46.670;14.272;2024-01-11T06:32:05;-7.20;59.50
38333;DHT22;25748;46.670;14.272;2024-01-11T06:34:31;-7.20;59.60
38333;DHT22;25748;46.670;14.272;2024-01-11T06:36:57;-7.20;59.70
38333;DHT22;25748;46.670;14.272;2024-01-11T06:39:22;-7.20;59.60
38333;DHT22;25748;46.670;14.272;2024-01-11T06:41:48;-7.20;59.50
38333;DHT22;25748;46.670;14.272;2024-01-11T06:44:14;-7.30;59.50
38333;DHT22;25748;46.670;14.272;2024-01-11T06:46:39;-7.30;59.50
38333;DHT22;25748;46.670;14.272;2024-01-11T06:49:07;-7.30;59.50
38333;DHT22;25748;46.670;14.272;2024-01-11T06:51:33;-7.30;59.60
38333;DHT22;25748;46.670;14.272;2024-01-11T06:54:00;-7.30;59.70
38333;DHT22;25748;46.670;14.272;2024-01-11T06:56:26;-7.20;59.90
38333;DHT22;25748;46.670;14.272;2024-01-11T06:58:52;-7.30;60.00
38333;DHT22;25748;46.670;14.272;2024-01-11T07:01:18;-7.20;60.10
38333;DHT22;25748;46.670;14.272;2024-01-11T07:03:44;-7.20;60.20
38333;DHT22;25748;46.670;14.272;2024-01-11T07:06:10;-7.20;60.20
38333;DHT22;25748;46.670;14.272;2024-01-11T07:08:35;-7.10;60.40
38333;DHT22;25748;46.670;14.272;2024-01-11T07:11:02;-7.10;60.40
38333;DHT22;25748;46.670;14.272;2024-01-11T07:13:31;-7.10;60.40
38333;DHT22;25748;46.670;14.272;2024-01-11T07:15:57;-7.00;60.50
38333;DHT22;25748;46.670;14.272;2024-01-11T07:18:24;-7.00;60.60
38333;DHT22;25748;46.670;14.272;2024-01-11T07:20:51;-6.90;61.10
38333;DHT22;25748;46.670;14.272;2024-01-11T07:23:17;-6.80;61.40
38333;DHT22;25748;46.670;14.272;2024-01-11T07:25:43;-6.70;61.70
38333;DHT22;25748;46.670;14.272;2024-01-11T07:28:09;-6.70;61.80
38333;DHT22;25748;46.670;14.272;2024-01-11T07:30:35;-6.60;62.00
38333;DHT22;25748;46.670;14.272;2024-01-11T07:33:00;-6.50;62.10
38333;DHT22;25748;46.670;14.272;2024-01-11T07:35:26;-6.40;62.40
38333;DHT22;25748;46.670;14.272;2024-01-11T07:37:52;-6.30;62.50
38333;DHT22;25748;46.670;14.272;2024-01-11T07:40:17;-6.20;62.70
38333;DHT22;25748;46.670;14.272;2024-01-11T07:42:43;-6.10;62.90
38333;DHT22;25748;46.670;14.272;2024-01-11T07:45:09;-6.00;63.00
38333;DHT22;25748;46.670;14.272;2024-01-11T07:47:36;-5.90;63.10
38333;DHT22;25748;46.670;14.272;2024-01-11T07:50:06;-5.90;63.10
38333;DHT22;25748;46.670;14.272;2024-01-11T07:52:33;-5.80;63.10
38333;DHT22;25748;46.670;14.272;2024-01-11T07:54:58;-5.70;63.20
38333;DHT22;25748;46.670;14.272;2024-01-11T07:57:32;-5.70;63.20
38333;DHT22;25748;46.670;14.272;2024-01-11T07:59:58;-5.60;63.30
38333;DHT22;25748;46.670;14.272;2024-01-11T08:02:25;-5.50;63.40
38333;DHT22;25748;46.670;14.272;2024-01-11T08:04:50;-5.50;63.40
38333;DHT22;25748;46.670;14.272;2024-01-11T08:07:16;-5.40;63.50
38333;DHT22;25748;46.670;14.272;2024-01-11T08:09:42;-5.20;63.90
38333;DHT22;25748;46.670;14.272;2024-01-11T08:12:11;-5.10;64.20
38333;DHT22;25748;46.670;14.272;2024-01-11T08:14:37;-5.00;64.30
38333;DHT22;25748;46.670;14.272;2024-01-11T08:17:02;-4.90;64.40
38333;DHT22;25748;46.670;14.272;2024-01-11T08:19:30;-4.70;64.80
38333;DHT22;25748;46.670;14.272;2024-01-11T08:21:56;-4.60;65.00
38333;DHT22;25748;46.670;14.272;2024-01-11T08:24:22;-4.40;65.30
38333;DHT22;25748;46.670;14.272;2024-01-11T08:26:48;-4.30;65.40
38333;DHT22;25748;46.670;14.272;2024-01-11T08:29:14;-4.10;65.70
38333;DHT22;25748;46.670;14.272;2024-01-11T08:31:40;-3.90;65.90
38333;DHT22;25748;46.670;14.272;2024-01-11T08:34:08;-3.70;65.90
38333;DHT22;25748;46.670;14.272;2024-01-11T08:36:33;-3.50;66.10
38333;DHT22;25748;46.670;14.272;2024-01-11T08:39:02;-3.40;66.00
38333;DHT22;25748;46.670;14.272;2024-01-11T08:41:31;-3.20;65.70
38333;DHT22;25748;46.670;14.272;2024-01-11T08:43:56;-3.00;65.70
38333;DHT22;25748;46.670;14.272;2024-01-11T08:46:26;-2.90;65.50
38333;DHT22;25748;46.670;14.272;2024-01-11T08:48:52;-2.70;65.50
38333;DHT22;25748;46.670;14.272;2024-01-11T08:51:18;-2.60;65.00
38333;DHT22;25748;46.670;14.272;2024-01-11T08:53:44;-2.50;64.50
38333;DHT22;25748;46.670;14.272;2024-01-11T08:56:10;-2.30;64.40
38333;DHT22;25748;46.670;14.272;2024-01-11T08:58:36;-2.20;63.80
38333;DHT22;25748;46.670;14.272;2024-01-11T09:01:02;-2.10;63.50
38333;DHT22;25748;46.670;14.272;2024-01-11T09:03:28;-2.00;62.90
38333;DHT22;25748;46.670;14.272;2024-01-11T09:05:54;-1.90;62.10
38333;DHT22;25748;46.670;14.272;2024-01-11T09:08:22;-1.90;61.40
38333;DHT22;25748;46.670;14.272;2024-01-11T09:10:48;-1.70;61.50
38333;DHT22;25748;46.670;14.272;2024-01-11T09:13:14;-1.60;61.50
38333;DHT22;25748;46.670;14.272;2024-01-11T09:15:41;-1.50;61.20
38333;DHT22;25748;46.670;14.272;2024-01-11T09:18:07;-1.40;59.70
38333;DHT22;25748;46.670;14.272;2024-01-11T09:20:33;-1.40;59.40
38333;DHT22;25748;46.670;14.272;2024-01-11T09:22:59;-1.20;59.40
38333;DHT22;25748;46.670;14.272;2024-01-11T09:25:27;-1.00;59.80
38333;DHT22;25748;46.670;14.272;2024-01-11T09:27:53;-0.90;59.30
38333;DHT22;25748;46.670;14.272;2024-01-11T09:30:19;-0.90;58.40
38333;DHT22;25748;46.670;14.272;2024-01-11T09:32:44;-0.70;58.70
38333;DHT22;25748;46.670;14.272;2024-01-11T09:35:10;-0.60;58.60
38333;DHT22;25748;46.670;14.272;2024-01-11T09:37:36;-0.50;58.50
38333;DHT22;25748;46.670;14.272;2024-01-11T09:40:02;-0.40;58.10
38333;DHT22;25748;46.670;14.272;2024-01-11T09:42:28;-0.30;57.90
38333;DHT22;25748;46.670;14.272;2024-01-11T09:44:56;-0.20;57.90
38333;DHT22;25748;46.670;14.272;2024-01-11T09:47:24;-0.10;57.70
38333;DHT22;25748;46.670;14.272;2024-01-11T09:49:50;0.00;57.20
38333;DHT22;25748;46.670;14.272;2024-01-11T09:52:19;0.10;57.10
38333;DHT22;25748;46.670;14.272;2024-01-11T09:54:45;0.20;56.60
38333;DHT22;25748;46.670;14.272;2024-01-11T09:57:11;0.30;56.60
38333;DHT22;25748;46.670;14.272;2024-01-11T09:59:37;0.40;56.40
38333;DHT22;25748;46.670;14.272;2024-01-11T10:02:03;0.50;56.40
38333;DHT22;25748;46.670;14.272;2024-01-11T10:04:29;0.60;56.30
38333;DHT22;25748;46.670;14.272;2024-01-11T10:06:55;0.80;56.00
38333;DHT22;25748;46.670;14.272;2024-01-11T10:09:22;0.80;55.40
38333;DHT22;25748;46.670;14.272;2024-01-11T10:11:48;0.90;55.20
38333;DHT22;25748;46.670;14.272;2024-01-11T10:14:14;1.00;54.70
38333;DHT22;25748;46.670;14.272;2024-01-11T10:16:42;1.00;54.60
38333;DHT22;25748;46.670;14.272;2024-01-11T10:19:08;1.10;54.60
38333;DHT22;25748;46.670;14.272;2024-01-11T10:21:38;1.20;54.50
38333;DHT22;25748;46.670;14.272;2024-01-11T10:24:07;1.30;54.70
38333;DHT22;25748;46.670;14.272;2024-01-11T10:26:33;1.30;54.40
38333;DHT22;25748;46.670;14.272;2024-01-11T10:29:00;1.40;54.60
38333;DHT22;25748;46.670;14.272;2024-01-11T10:31:28;1.50;54.60
38333;DHT22;25748;46.670;14.272;2024-01-11T10:33:54;1.60;54.30
38333;DHT22;25748;46.670;14.272;2024-01-11T10:36:20;1.70;53.90
38333;DHT22;25748;46.670;14.272;2024-01-11T10:38:47;1.80;54.00
38333;DHT22;25748;46.670;14.272;2024-01-11T10:41:13;1.70;53.40
38333;DHT22;25748;46.670;14.272;2024-01-11T10:43:43;1.80;53.60
38333;DHT22;25748;46.670;14.272;2024-01-11T10:46:12;1.90;53.60
38333;DHT22;25748;46.670;14.272;2024-01-11T10:48:39;2.00;53.50
38333;DHT22;25748;46.670;14.272;2024-01-11T10:51:08;2.00;52.70
38333;DHT22;25748;46.670;14.272;2024-01-11T10:53:44;2.10;53.00
38333;DHT22;25748;46.670;14.272;2024-01-11T10:56:14;2.20;53.10
38333;DHT22;25748;46.670;14.272;2024-01-11T10:58:42;2.40;53.10
38333;DHT22;25748;46.670;14.272;2024-01-11T11:01:11;2.50;53.10
38333;DHT22;25748;46.670;14.272;2024-01-11T11:03:37;2.60;52.50
38333;DHT22;25748;46.670;14.272;2024-01-11T11:06:04;2.70;52.50
38333;DHT22;25748;46.670;14.272;2024-01-11T11:08:31;2.80;52.00
38333;DHT22;25748;46.670;14.272;2024-01-11T11:10:58;2.90;52.00
38333;DHT22;25748;46.670;14.272;2024-01-11T11:13:25;3.00;51.60
38333;DHT22;25748;46.670;14.272;2024-01-11T11:15:52;3.10;51.70
38333;DHT22;25748;46.670;14.272;2024-01-11T11:18:19;3.20;51.40
38333;DHT22;25748;46.670;14.272;2024-01-11T11:20:46;3.20;50.60
38333;DHT22;25748;46.670;14.272;2024-01-11T11:23:14;3.30;50.80
38333;DHT22;25748;46.670;14.272;2024-01-11T11:25:41;3.40;50.60
38333;DHT22;25748;46.670;14.272;2024-01-11T11:28:07;3.50;50.30
38333;DHT22;25748;46.670;14.272;2024-01-11T11:30:37;3.50;50.10
38333;DHT22;25748;46.670;14.272;2024-01-11T11:33:11;3.60;50.30
38333;DHT22;25748;46.670;14.272;2024-01-11T11:35:41;3.70;50.10
38333;DHT22;25748;46.670;14.272;2024-01-11T11:38:08;3.70;50.30
38333;DHT22;25748;46.670;14.272;2024-01-11T11:40:38;3.80;49.50
38333;DHT22;25748;46.670;14.272;2024-01-11T11:43:09;3.90;49.70
38333;DHT22;25748;46.670;14.272;2024-01-11T11:45:35;3.90;49.50
38333;DHT22;25748;46.670;14.272;2024-01-11T11:51:06;4.00;49.00
38333;DHT22;25748;46.670;14.272;2024-01-11T11:53:39;4.10;48.30
38333;DHT22;25748;46.670;14.272;2024-01-11T11:56:06;4.10;48.40
38333;DHT22;25748;46.670;14.272;2024-01-11T11:58:34;4.20;48.90
38333;DHT22;25748;46.670;14.272;2024-01-11T12:01:01;4.20;48.40
38333;DHT22;25748;46.670;14.272;2024-01-11T12:03:33;4.30;48.60
38333;DHT22;25748;46.670;14.272;2024-01-11T12:05:59;4.40;48.80
38333;DHT22;25748;46.670;14.272;2024-01-11T12:08:25;4.50;48.60
38333;DHT22;25748;46.670;14.272;2024-01-11T12:10:53;4.50;48.80
38333;DHT22;25748;46.670;14.272;2024-01-11T12:13:19;4.60;48.60
38333;DHT22;25748;46.670;14.272;2024-01-11T12:15:46;4.70;47.80
38333;DHT22;25748;46.670;14.272;2024-01-11T12:18:12;4.80;47.60
38333;DHT22;25748;46.670;14.272;2024-01-11T12:20:37;4.90;47.70
38333;DHT22;25748;46.670;14.272;2024-01-11T12:23:03;4.90;46.80
38333;DHT22;25748;46.670;14.272;2024-01-11T12:25:30;4.90;46.60
38333;DHT22;25748;46.670;14.272;2024-01-11T12:27:56;5.00;46.90
38333;DHT22;25748;46.670;14.272;2024-01-11T12:30:22;5.20;46.90
38333;DHT22;25748;46.670;14.272;2024-01-11T12:32:49;5.20;46.20
38333;DHT22;25748;46.670;14.272;2024-01-11T12:35:16;5.30;46.00
38333;DHT22;25748;46.670;14.272;2024-01-11T12:37:55;5.30;46.30
38333;DHT22;25748;46.670;14.272;2024-01-11T12:40:24;5.40;45.90
38333;DHT22;25748;46.670;14.272;2024-01-11T12:42:52;5.50;46.00
38333;DHT22;25748;46.670;14.272;2024-01-11T12:45:19;5.50;45.60
38333;DHT22;25748;46.670;14.272;2024-01-11T12:47:45;5.60;46.00
38333;DHT22;25748;46.670;14.272;2024-01-11T12:50:14;5.60;46.00
38333;DHT22;25748;46.670;14.272;2024-01-11T12:52:40;5.70;46.40
38333;DHT22;25748;46.670;14.272;2024-01-11T12:55:08;5.80;45.70
38333;DHT22;25748;46.670;14.272;2024-01-11T12:57:34;5.70;45.50
38333;DHT22;25748;46.670;14.272;2024-01-11T13:00:16;5.70;46.00
38333;DHT22;25748;46.670;14.272;2024-01-11T13:02:45;5.70;46.00
38333;DHT22;25748;46.670;14.272;2024-01-11T13:05:13;5.80;45.30
38333;DHT22;25748;46.670;14.272;2024-01-11T13:07:39;5.60;44.80
38333;DHT22;25748;46.670;14.272;2024-01-11T13:10:05;5.60;44.90
38333;DHT22;25748;46.670;14.272;2024-01-11T13:12:31;5.60;45.00
38333;DHT22;25748;46.670;14.272;2024-01-11T13:14:57;5.60;45.10
38333;DHT22;25748;46.670;14.272;2024-01-11T13:17:22;5.60;44.80
38333;DHT22;25748;46.670;14.272;2024-01-11T13:19:48;5.60;45.50
38333;DHT22;25748;46.670;14.272;2024-01-11T13:22:15;5.70;45.40
38333;DHT22;25748;46.670;14.272;2024-01-11T13:24:40;5.80;45.40
38333;DHT22;25748;46.670;14.272;2024-01-11T13:27:06;5.70;45.10
38333;DHT22;25748;46.670;14.272;2024-01-11T13:29:31;5.80;45.10
38333;DHT22;25748;46.670;14.272;2024-01-11T13:31:57;5.80;44.90
38333;DHT22;25748;46.670;14.272;2024-01-11T13:34:23;5.80;45.10
38333;DHT22;25748;46.670;14.272;2024-01-11T13:36:48;5.90;44.80
38333;DHT22;25748;46.670;14.272;2024-01-11T13:39:14;5.90;45.30
38333;DHT22;25748;46.670;14.272;2024-01-11T13:41:43;5.90;45.10
38333;DHT22;25748;46.670;14.272;2024-01-11T13:44:09;5.90;45.40
38333;DHT22;25748;46.670;14.272;2024-01-11T13:46:35;5.90;45.30
38333;DHT22;25748;46.670;14.272;2024-01-11T13:49:01;5.90;45.30
38333;DHT22;25748;46.670;14.272;2024-01-11T13:51:28;6.00;45.50
38333;DHT22;25748;46.670;14.272;2024-01-11T13:53:54;6.00;45.30
38333;DHT22;25748;46.670;14.272;2024-01-11T13:56:19;5.90;45.20
38333;DHT22;25748;46.670;14.272;2024-01-11T13:58:45;6.00;45.00
38333;DHT22;25748;46.670;14.272;2024-01-11T14:01:11;6.00;44.30
38333;DHT22;25748;46.670;14.272;2024-01-11T14:03:38;6.00;44.40
38333;DHT22;25748;46.670;14.272;2024-01-11T14:06:04;6.00;44.90
38333;DHT22;25748;46.670;14.272;2024-01-11T14:08:30;6.00;44.40
38333;DHT22;25748;46.670;14.272;2024-01-11T14:10:56;5.90;44.50
38333;DHT22;25748;46.670;14.272;2024-01-11T14:13:22;6.00;44.50
38333;DHT22;25748;46.670;14.272;2024-01-11T14:15:48;6.00;44.90
38333;DHT22;25748;46.670;14.272;2024-01-11T14:18:14;6.00;44.80
38333;DHT22;25748;46.670;14.272;2024-01-11T14:20:39;6.00;44.60
38333;DHT22;25748;46.670;14.272;2024-01-11T14:23:05;6.00;44.50
38333;DHT22;25748;46.670;14.272;2024-01-11T14:25:30;5.90;44.30
38333;DHT22;25748;46.670;14.272;2024-01-11T14:27:56;5.80;45.20
38333;DHT22;25748;46.670;14.272;2024-01-11T14:30:22;5.80;45.30
38333;DHT22;25748;46.670;14.272;2024-01-11T14:32:48;5.70;45.40
38333;DHT22;25748;46.670;14.272;2024-01-11T14:35:14;5.60;45.50
38333;DHT22;25748;46.670;14.272;2024-01-11T14:37:40;5.70;45.40
38333;DHT22;25748;46.670;14.272;2024-01-11T14:40:07;5.70;45.30
38333;DHT22;25748;46.670;14.272;2024-01-11T14:42:36;5.80;45.30
38333;DHT22;25748;46.670;14.272;2024-01-11T14:45:02;5.70;44.80
38333;DHT22;25748;46.670;14.272;2024-01-11T14:47:29;5.60;44.60
38333;DHT22;25748;46.670;14.272;2024-01-11T14:49:57;5.60;45.10
38333;DHT22;25748;46.670;14.272;2024-01-11T14:52:23;5.60;45.20
38333;DHT22;25748;46.670;14.272;2024-01-11T14:54:48;5.50;45.00
38333;DHT22;25748;46.670;14.272;2024-01-11T14:57:14;5.60;45.20
38333;DHT22;25748;46.670;14.272;2024-01-11T14:59:43;5.50;45.40
38333;DHT22;25748;46.670;14.272;2024-01-11T15:02:11;5.50;45.20
38333;DHT22;25748;46.670;14.272;2024-01-11T15:04:36;5.40;44.90
38333;DHT22;25748;46.670;14.272;2024-01-11T15:07:02;5.30;45.20
38333;DHT22;25748;46.670;14.272;2024-01-11T15:09:28;5.10;45.60
38333;DHT22;25748;46.670;14.272;2024-01-11T15:11:54;4.90;46.10
38333;DHT22;25748;46.670;14.272;2024-01-11T15:14:20;4.70;46.60
38333;DHT22;25748;46.670;14.272;2024-01-11T15:16:45;4.50;46.60
38333;DHT22;25748;46.670;14.272;2024-01-11T15:19:11;4.20;46.90
38333;DHT22;25748;46.670;14.272;2024-01-11T15:21:38;3.90;47.20